sensor_id;sensor_type;location;lat;lon;timestamp;pressure;altitude;pressure_sealevel;temperature;humidity
39177;BME280;24904;52.208;21.192;2023-05-24T00:04:58;100139.07;;;16.88;51.51
39177;BME280;24904;52.208;21.192;2023-05-24T00:10:03;100139.36;;;16.88;51.54
39177;BME280;24904;52.208;21.192;2023-05-24T00:15:10;100136.40;;;16.86;51.63
39177;BME280;24904;52.208;21.192;2023-05-24T00:20:16;100134.44;;;16.85;51.64
39177;BME280;24904;52.208;21.192;2023-05-24T00:25:23;100131.66;;;16.85;51.44
39177;BME280;24904;52.208;21.192;2023-05-24T00:30:28;100127.83;;;16.83;51.40
39177;BME280;24904;52.208;21.192;2023-05-24T00:35:32;100117.52;;;16.79;51.28
39177;BME280;24904;52.208;21.192;2023-05-24T00:40:38;100127.27;;;16.83;51.19
39177;BME280;24904;52.208;21.192;2023-05-24T00:45:44;100115.92;;;16.80;51.26
39177;BME280;24904;52.208;21.192;2023-05-24T00:50:49;100112.89;;;16.77;51.32
39177;BME280;24904;52.208;21.192;2023-05-24T00:55:55;100115.73;;;16.78;51.20
39177;BME280;24904;52.208;21.192;2023-05-24T01:01:03;100106.14;;;16.73;51.21
39177;BME280;24904;52.208;21.192;2023-05-24T01:06:09;100096.84;;;16.71;50.96
39177;BME280;24904;52.208;21.192;2023-05-24T01:11:20;100103.34;;;16.76;50.65
39177;BME280;24904;52.208;21.192;2023-05-24T01:16:35;100103.85;;;16.78;50.47
39177;BME280;24904;52.208;21.192;2023-05-24T01:21:58;100107.33;;;16.78;50.44
39177;BME280;24904;52.208;21.192;2023-05-24T01:27:13;100107.50;;;16.77;50.29
39177;BME280;24904;52.208;21.192;2023-05-24T01:32:19;100112.30;;;16.79;49.98
39177;BME280;24904;52.208;21.192;2023-05-24T01:37:25;100114.74;;;16.79;49.93
39177;BME280;24904;52.208;21.192;2023-05-24T01:42:35;100119.23;;;16.81;49.79
39177;BME280;24904;52.208;21.192;2023-05-24T01:47:57;100119.89;;;16.80;49.51
39177;BME280;24904;52.208;21.192;2023-05-24T01:53:08;100117.86;;;16.78;49.47
39177;BME280;24904;52.208;21.192;2023-05-24T01:58:20;100126.56;;;16.79;50.30
39177;BME280;24904;52.208;21.192;2023-05-24T02:03:27;100133.16;;;16.73;51.26
39177;BME280;24904;52.208;21.192;2023-05-24T02:08:33;100129.14;;;16.67;50.51
39177;BME280;24904;52.208;21.192;2023-05-24T02:13:39;100131.27;;;16.62;50.12
39177;BME280;24904;52.208;21.192;2023-05-24T02:18:45;100132.33;;;16.59;50.19
39177;BME280;24904;52.208;21.192;2023-05-24T02:23:51;100130.79;;;16.53;50.34
39177;BME280;24904;52.208;21.192;2023-05-24T02:29:03;100134.36;;;16.48;50.73
39177;BME280;24904;52.208;21.192;2023-05-24T02:34:08;100133.78;;;16.40;50.81
39177;BME280;24904;52.208;21.192;2023-05-24T02:39:14;100129.62;;;16.32;50.89
39177;BME280;24904;52.208;21.192;2023-05-24T02:44:21;100126.43;;;16.24;50.92
39177;BME280;24904;52.208;21.192;2023-05-24T02:49:27;100129.20;;;16.24;50.82
39177;BME280;24904;52.208;21.192;2023-05-24T02:54:35;100133.34;;;16.23;50.79
39177;BME280;24904;52.208;21.192;2023-05-24T02:59:44;100136.85;;;16.22;50.93
39177;BME280;24904;52.208;21.192;2023-05-24T03:13:44;100138.66;;;16.22;51.04
39177;BME280;24904;52.208;21.192;2023-05-24T03:18:54;100138.93;;;16.20;51.20
39177;BME280;24904;52.208;21.192;2023-05-24T03:24:01;100144.64;;;16.19;51.36
39177;BME280;24904;52.208;21.192;2023-05-24T03:29:10;100142.36;;;16.12;51.59
39177;BME280;24904;52.208;21.192;2023-05-24T03:34:19;100154.19;;;16.15;51.53
39177;BME280;24904;52.208;21.192;2023-05-24T03:39:26;100150.36;;;16.12;51.70
39177;BME280;24904;52.208;21.192;2023-05-24T03:44:45;100152.77;;;16.10;52.04
39177;BME280;24904;52.208;21.192;2023-05-24T03:49:51;100152.80;;;16.08;52.10
39177;BME280;24904;52.208;21.192;2023-05-24T03:55:00;100156.68;;;16.08;52.25
39177;BME280;24904;52.208;21.192;2023-05-24T04:00:09;100162.77;;;16.08;52.33
39177;BME280;24904;52.208;21.192;2023-05-24T04:05:19;100167.03;;;16.09;52.36
39177;BME280;24904;52.208;21.192;2023-05-24T04:10:31;100171.66;;;16.11;52.46
39177;BME280;24904;52.208;21.192;2023-05-24T04:15:38;100169.48;;;16.14;52.49
39177;BME280;24904;52.208;21.192;2023-05-24T04:20:49;100171.60;;;16.15;52.35
39177;BME280;24904;52.208;21.192;2023-05-24T04:25:58;100175.17;;;16.20;52.28
39177;BME280;24904;52.208;21.192;2023-05-24T04:31:07;100172.32;;;16.20;52.32
39177;BME280;24904;52.208;21.192;2023-05-24T04:36:14;100183.88;;;16.30;52.65
39177;BME280;24904;52.208;21.192;2023-05-24T04:41:20;100191.95;;;16.32;52.70
39177;BME280;24904;52.208;21.192;2023-05-24T04:46:24;100200.65;;;16.37;52.71
39177;BME280;24904;52.208;21.192;2023-05-24T04:51:29;100202.76;;;16.43;52.74
39177;BME280;24904;52.208;21.192;2023-05-24T04:56:32;100203.25;;;16.47;52.80
39177;BME280;24904;52.208;21.192;2023-05-24T05:01:35;100202.61;;;16.53;52.94
39177;BME280;24904;52.208;21.192;2023-05-24T05:06:39;100202.36;;;16.59;53.03
39177;BME280;24904;52.208;21.192;2023-05-24T05:11:46;100209.70;;;16.66;52.98
39177;BME280;24904;52.208;21.192;2023-05-24T05:16:51;100214.29;;;16.76;52.54
39177;BME280;24904;52.208;21.192;2023-05-24T05:22:01;100218.23;;;16.88;52.80
39177;BME280;24904;52.208;21.192;2023-05-24T05:27:12;100220.86;;;17.00;52.53
39177;BME280;24904;52.208;21.192;2023-05-24T05:32:18;100223.16;;;17.14;52.55
39177;BME280;24904;52.208;21.192;2023-05-24T05:37:22;100219.84;;;17.26;52.21
39177;BME280;24904;52.208;21.192;2023-05-24T05:42:26;100224.23;;;17.37;52.10
39177;BME280;24904;52.208;21.192;2023-05-24T05:47:30;100227.80;;;17.50;51.79
39177;BME280;24904;52.208;21.192;2023-05-24T05:52:35;100229.83;;;17.60;52.05
39177;BME280;24904;52.208;21.192;2023-05-24T05:57:42;100240.17;;;17.70;51.72
39177;BME280;24904;52.208;21.192;2023-05-24T06:02:47;100238.59;;;17.83;51.22
39177;BME280;24904;52.208;21.192;2023-05-24T06:07:51;100248.85;;;18.04;50.81
39177;BME280;24904;52.208;21.192;2023-05-24T06:12:56;100257.58;;;18.15;50.42
39177;BME280;24904;52.208;21.192;2023-05-24T06:18:00;100261.73;;;18.25;50.03
39177;BME280;24904;52.208;21.192;2023-05-24T06:23:08;100263.05;;;18.34;50.16
39177;BME280;24904;52.208;21.192;2023-05-24T06:28:12;100266.27;;;18.39;49.98
39177;BME280;24904;52.208;21.192;2023-05-24T06:33:16;100272.65;;;18.45;49.61
39177;BME280;24904;52.208;21.192;2023-05-24T06:38:21;100274.86;;;18.52;49.65
39177;BME280;24904;52.208;21.192;2023-05-24T06:43:25;100282.73;;;18.67;49.57
39177;BME280;24904;52.208;21.192;2023-05-24T06:48:29;100288.34;;;18.85;48.93
39177;BME280;24904;52.208;21.192;2023-05-24T06:53:37;100288.85;;;19.03;49.07
39177;BME280;24904;52.208;21.192;2023-05-24T06:58:43;100291.05;;;19.29;49.03
39177;BME280;24904;52.208;21.192;2023-05-24T07:03:48;100287.45;;;19.49;48.45
39177;BME280;24904;52.208;21.192;2023-05-24T07:08:58;100297.83;;;19.78;47.96
39177;BME280;24904;52.208;21.192;2023-05-24T07:14:04;100303.41;;;20.05;47.46
39177;BME280;24904;52.208;21.192;2023-05-24T07:19:10;100307.95;;;20.27;47.28
39177;BME280;24904;52.208;21.192;2023-05-24T07:24:19;100314.94;;;20.31;46.35
39177;BME280;24904;52.208;21.192;2023-05-24T07:29:24;100329.22;;;20.22;46.37
39177;BME280;24904;52.208;21.192;2023-05-24T07:34:28;100332.19;;;20.15;46.54
39177;BME280;24904;52.208;21.192;2023-05-24T07:39:34;100340.00;;;20.12;46.82
39177;BME280;24904;52.208;21.192;2023-05-24T07:44:39;100344.14;;;20.24;47.08
39177;BME280;24904;52.208;21.192;2023-05-24T07:49:47;100343.83;;;20.34;46.81
39177;BME280;24904;52.208;21.192;2023-05-24T07:54:55;100344.48;;;20.48;46.87
39177;BME280;24904;52.208;21.192;2023-05-24T08:00:02;100346.07;;;20.57;47.86
39177;BME280;24904;52.208;21.192;2023-05-24T08:05:16;100351.48;;;20.69;46.94
39177;BME280;24904;52.208;21.192;2023-05-24T08:10:24;100353.15;;;20.85;46.71
39177;BME280;24904;52.208;21.192;2023-05-24T08:15:34;100352.07;;;20.97;46.52
39177;BME280;24904;52.208;21.192;2023-05-24T08:20:45;100354.70;;;21.07;45.27
39177;BME280;24904;52.208;21.192;2023-05-24T08:25:58;100351.16;;;21.13;45.19
39177;BME280;24904;52.208;21.192;2023-05-24T08:31:06;100353.75;;;21.24;45.69
39177;BME280;24904;52.208;21.192;2023-05-24T08:36:13;100356.18;;;21.30;45.48
39177;BME280;24904;52.208;21.192;2023-05-24T08:41:23;100361.65;;;21.36;45.00
39177;BME280;24904;52.208;21.192;2023-05-24T08:46:40;100363.95;;;21.51;45.13
39177;BME280;24904;52.208;21.192;2023-05-24T08:51:56;100365.83;;;21.76;44.97
39177;BME280;24904;52.208;21.192;2023-05-24T08:57:15;100369.01;;;21.94;44.58
39177;BME280;24904;52.208;21.192;2023-05-24T09:02:29;100368.84;;;22.14;44.24
39177;BME280;24904;52.208;21.192;2023-05-24T09:07:38;100369.49;;;22.27;44.09
39177;BME280;24904;52.208;21.192;2023-05-24T09:12:50;100373.53;;;22.31;43.88
39177;BME280;24904;52.208;21.192;2023-05-24T09:17:57;100375.17;;;22.28;43.88
39177;BME280;24904;52.208;21.192;2023-05-24T09:23:08;100375.45;;;22.20;43.67
39177;BME280;24904;52.208;21.192;2023-05-24T09:28:21;100381.36;;;22.25;43.25
39177;BME280;24904;52.208;21.192;2023-05-24T09:33:32;100383.34;;;22.29;42.72
39177;BME280;24904;52.208;21.192;2023-05-24T09:38:40;100381.89;;;22.36;41.75
39177;BME280;24904;52.208;21.192;2023-05-24T09:43:51;100392.20;;;22.65;41.29
39177;BME280;24904;52.208;21.192;2023-05-24T09:49:02;100388.83;;;23.05;40.85
39177;BME280;24904;52.208;21.192;2023-05-24T09:54:14;100380.81;;;23.39;40.38
39177;BME280;24904;52.208;21.192;2023-05-24T09:59:28;100384.63;;;23.78;39.38
39177;BME280;24904;52.208;21.192;2023-05-24T10:04:43;100390.77;;;24.10;38.95
39177;BME280;24904;52.208;21.192;2023-05-24T10:09:53;100392.48;;;24.37;38.64
39177;BME280;24904;52.208;21.192;2023-05-24T10:15:07;100390.50;;;24.45;37.38
39177;BME280;24904;52.208;21.192;2023-05-24T10:20:20;100396.80;;;24.51;37.42
39177;BME280;24904;52.208;21.192;2023-05-24T10:25:27;100400.14;;;24.61;37.38
39177;BME280;24904;52.208;21.192;2023-05-24T10:30:33;100403.19;;;24.73;36.81
39177;BME280;24904;52.208;21.192;2023-05-24T10:44:32;100408.77;;;24.75;36.68
39177;BME280;24904;52.208;21.192;2023-05-24T10:49:36;100404.98;;;24.58;36.36
39177;BME280;24904;52.208;21.192;2023-05-24T10:54:40;100406.98;;;24.57;36.84
39177;BME280;24904;52.208;21.192;2023-05-24T10:59:43;100406.30;;;24.66;36.87
39177;BME280;24904;52.208;21.192;2023-05-24T11:04:47;100411.07;;;24.77;36.25
39177;BME280;24904;52.208;21.192;2023-05-24T11:09:56;100413.69;;;24.88;36.45
39177;BME280;24904;52.208;21.192;2023-05-24T11:15:09;100414.60;;;25.00;36.61
39177;BME280;24904;52.208;21.192;2023-05-24T11:20:13;100415.52;;;25.04;36.53
39177;BME280;24904;52.208;21.192;2023-05-24T11:25:18;100415.68;;;25.12;36.80
39177;BME280;24904;52.208;21.192;2023-05-24T11:30:22;100425.30;;;25.16;36.67
39177;BME280;24904;52.208;21.192;2023-05-24T11:35:26;100422.31;;;25.10;36.16
39177;BME280;24904;52.208;21.192;2023-05-24T11:40:31;100417.70;;;25.14;36.78
39177;BME280;24904;52.208;21.192;2023-05-24T11:45:35;100416.45;;;25.20;36.94
39177;BME280;24904;52.208;21.192;2023-05-24T11:50:39;100417.27;;;25.21;36.84
39177;BME280;24904;52.208;21.192;2023-05-24T11:55:44;100418.56;;;25.09;36.89
39177;BME280;24904;52.208;21.192;2023-05-24T12:00:48;100410.26;;;24.96;37.33
39177;BME280;24904;52.208;21.192;2023-05-24T12:05:56;100421.52;;;24.87;38.91
39177;BME280;24904;52.208;21.192;2023-05-24T12:19:17;100429.55;;;24.61;40.40
39177;BME280;24904;52.208;21.192;2023-05-24T12:24:23;100428.09;;;24.44;41.01
39177;BME280;24904;52.208;21.192;2023-05-24T12:29:33;100427.98;;;24.28;41.25
39177;BME280;24904;52.208;21.192;2023-05-24T12:34:40;100432.63;;;24.11;42.09
39177;BME280;24904;52.208;21.192;2023-05-24T12:39:46;100433.33;;;23.97;41.00
39177;BME280;24904;52.208;21.192;2023-05-24T12:44:52;100433.08;;;23.84;43.06
39177;BME280;24904;52.208;21.192;2023-05-24T12:49:58;100427.61;;;23.68;44.73
39177;BME280;24904;52.208;21.192;2023-05-24T12:55:04;100431.73;;;23.53;45.51
39177;BME280;24904;52.208;21.192;2023-05-24T13:00:12;100434.92;;;23.39;45.95
39177;BME280;24904;52.208;21.192;2023-05-24T13:05:18;100442.45;;;23.19;47.72
39177;BME280;24904;52.208;21.192;2023-05-24T13:10:25;100451.73;;;22.89;48.79
39177;BME280;24904;52.208;21.192;2023-05-24T13:15:31;100455.59;;;22.40;48.80
39177;BME280;24904;52.208;21.192;2023-05-24T13:20:37;100450.97;;;21.91;49.02
39177;BME280;24904;52.208;21.192;2023-05-24T13:25:43;100441.39;;;21.63;49.01
39177;BME280;24904;52.208;21.192;2023-05-24T13:30:48;100438.94;;;21.32;51.35
39177;BME280;24904;52.208;21.192;2023-05-24T13:35:54;100436.17;;;21.05;52.07
39177;BME280;24904;52.208;21.192;2023-05-24T13:41:00;100448.23;;;20.92;53.17
39177;BME280;24904;52.208;21.192;2023-05-24T13:46:06;100443.41;;;20.83;54.76
39177;BME280;24904;52.208;21.192;2023-05-24T13:51:12;100446.61;;;20.72;56.27
39177;BME280;24904;52.208;21.192;2023-05-24T13:56:21;100452.01;;;20.61;57.86
39177;BME280;24904;52.208;21.192;2023-05-24T14:01:28;100454.77;;;20.73;59.12
39177;BME280;24904;52.208;21.192;2023-05-24T14:06:34;100457.50;;;20.81;58.25
39177;BME280;24904;52.208;21.192;2023-05-24T14:11:40;100463.63;;;20.94;56.98
39177;BME280;24904;52.208;21.192;2023-05-24T14:16:47;100469.17;;;21.01;56.61
39177;BME280;24904;52.208;21.192;2023-05-24T14:21:54;100468.00;;;21.03;55.18
39177;BME280;24904;52.208;21.192;2023-05-24T14:26:59;100466.48;;;21.03;53.66
39177;BME280;24904;52.208;21.192;2023-05-24T14:32:05;100464.65;;;21.05;52.98
39177;BME280;24904;52.208;21.192;2023-05-24T14:37:10;100465.65;;;21.07;50.96
39177;BME280;24904;52.208;21.192;2023-05-24T14:42:15;100457.13;;;21.09;49.28
39177;BME280;24904;52.208;21.192;2023-05-24T14:47:20;100459.38;;;21.11;48.82
39177;BME280;24904;52.208;21.192;2023-05-24T14:52:25;100457.91;;;21.12;49.02
39177;BME280;24904;52.208;21.192;2023-05-24T14:57:30;100453.43;;;21.07;50.91
39177;BME280;24904;52.208;21.192;2023-05-24T15:02:35;100455.61;;;20.96;50.86
39177;BME280;24904;52.208;21.192;2023-05-24T15:07:40;100456.51;;;20.90;51.52
39177;BME280;24904;52.208;21.192;2023-05-24T15:12:45;100457.00;;;20.92;51.67
39177;BME280;24904;52.208;21.192;2023-05-24T15:24:25;100463.01;;;21.02;50.80
39177;BME280;24904;52.208;21.192;2023-05-24T15:29:30;100474.25;;;21.10;51.67
39177;BME280;24904;52.208;21.192;2023-05-24T15:34:35;100474.34;;;21.13;52.50
39177;BME280;24904;52.208;21.192;2023-05-24T15:39:40;100477.87;;;21.14;53.39
39177;BME280;24904;52.208;21.192;2023-05-24T15:44:45;100486.90;;;21.17;53.38
39177;BME280;24904;52.208;21.192;2023-05-24T15:49:50;100491.16;;;21.21;53.61
39177;BME280;24904;52.208;21.192;2023-05-24T15:54:56;100496.92;;;21.26;54.07
39177;BME280;24904;52.208;21.192;2023-05-24T16:00:01;100503.85;;;21.29;53.91
39177;BME280;24904;52.208;21.192;2023-05-24T16:05:15;100516.57;;;21.36;54.39
39177;BME280;24904;52.208;21.192;2023-05-24T16:10:22;100524.61;;;21.36;55.08
39177;BME280;24904;52.208;21.192;2023-05-24T16:15:27;100529.24;;;21.36;55.55
39177;BME280;24904;52.208;21.192;2023-05-24T16:28:27;100542.88;;;21.37;56.72
39177;BME280;24904;52.208;21.192;2023-05-24T16:33:32;100547.59;;;21.31;57.38
39177;BME280;24904;52.208;21.192;2023-05-24T16:38:37;100551.48;;;21.26;57.97
39177;BME280;24904;52.208;21.192;2023-05-24T16:43:42;100559.42;;;21.19;58.12
39177;BME280;24904;52.208;21.192;2023-05-24T16:48:47;100565.33;;;21.08;58.41
39177;BME280;24904;52.208;21.192;2023-05-24T16:53:52;100566.40;;;20.93;58.40
39177;BME280;24904;52.208;21.192;2023-05-24T16:58:57;100570.64;;;20.81;58.78
39177;BME280;24904;52.208;21.192;2023-05-24T17:04:02;100575.70;;;20.71;59.01
39177;BME280;24904;52.208;21.192;2023-05-24T17:09:07;100586.52;;;20.60;59.33
39177;BME280;24904;52.208;21.192;2023-05-24T17:14:12;100583.09;;;20.48;59.51
39177;BME280;24904;52.208;21.192;2023-05-24T17:19:17;100583.04;;;20.36;59.82
39177;BME280;24904;52.208;21.192;2023-05-24T17:24:23;100584.58;;;20.23;60.07
39177;BME280;24904;52.208;21.192;2023-05-24T17:29:30;100585.05;;;20.14;60.25
39177;BME280;24904;52.208;21.192;2023-05-24T17:34:35;100588.96;;;20.07;60.43
39177;BME280;24904;52.208;21.192;2023-05-24T17:39:40;100590.02;;;19.96;60.66
39177;BME280;24904;52.208;21.192;2023-05-24T17:44:45;100602.34;;;19.87;60.72
39177;BME280;24904;52.208;21.192;2023-05-24T17:49:50;100604.45;;;19.78;60.94
39177;BME280;24904;52.208;21.192;2023-05-24T17:54:55;100611.55;;;19.71;61.13
39177;BME280;24904;52.208;21.192;2023-05-24T18:00:00;100616.66;;;19.63;61.47
39177;BME280;24904;52.208;21.192;2023-05-24T18:05:06;100613.31;;;19.55;61.69
39177;BME280;24904;52.208;21.192;2023-05-24T18:10:12;100612.69;;;19.50;61.69
39177;BME280;24904;52.208;21.192;2023-05-24T18:15:17;100623.65;;;19.40;61.74
39177;BME280;24904;52.208;21.192;2023-05-24T18:20:23;100635.45;;;19.31;61.89
39177;BME280;24904;52.208;21.192;2023-05-24T18:25:28;100649.31;;;19.22;61.96
39177;BME280;24904;52.208;21.192;2023-05-24T18:30:34;100659.15;;;19.15;62.16
39177;BME280;24904;52.208;21.192;2023-05-24T18:35:39;100667.64;;;19.08;62.33
39177;BME280;24904;52.208;21.192;2023-05-24T18:40:44;100673.72;;;19.02;62.53
39177;BME280;24904;52.208;21.192;2023-05-24T18:45:49;100683.32;;;18.94;62.68
39177;BME280;24904;52.208;21.192;2023-05-24T18:50:54;100690.19;;;18.88;62.86
39177;BME280;24904;52.208;21.192;2023-05-24T18:55:59;100694.52;;;18.81;62.96
39177;BME280;24904;52.208;21.192;2023-05-24T19:01:04;100700.79;;;18.73;63.07
39177;BME280;24904;52.208;21.192;2023-05-24T19:06:09;100701.14;;;18.65;63.28
39177;BME280;24904;52.208;21.192;2023-05-24T19:11:16;100705.96;;;18.57;63.42
39177;BME280;24904;52.208;21.192;2023-05-24T19:16:21;100710.84;;;18.50;63.60
39177;BME280;24904;52.208;21.192;2023-05-24T19:21:26;100714.35;;;18.43;63.81
39177;BME280;24904;52.208;21.192;2023-05-24T19:26:32;100707.96;;;18.36;63.94
39177;BME280;24904;52.208;21.192;2023-05-24T19:31:37;100718.97;;;18.27;64.18
39177;BME280;24904;52.208;21.192;2023-05-24T19:36:42;100724.55;;;18.21;64.23
39177;BME280;24904;52.208;21.192;2023-05-24T19:41:47;100729.38;;;18.10;64.41
39177;BME280;24904;52.208;21.192;2023-05-24T19:46:52;100736.66;;;18.00;64.69
39177;BME280;24904;52.208;21.192;2023-05-24T19:51:57;100740.86;;;17.95;64.96
39177;BME280;24904;52.208;21.192;2023-05-24T19:57:02;100744.43;;;17.90;65.04
39177;BME280;24904;52.208;21.192;2023-05-24T20:02:08;100749.70;;;17.86;65.34
39177;BME280;24904;52.208;21.192;2023-05-24T20:07:13;100745.77;;;17.78;65.35
39177;BME280;24904;52.208;21.192;2023-05-24T20:12:36;100747.88;;;17.72;65.39
39177;BME280;24904;52.208;21.192;2023-05-24T20:17:41;100746.57;;;17.62;65.42
39177;BME280;24904;52.208;21.192;2023-05-24T20:22:48;100751.17;;;17.54;65.64
39177;BME280;24904;52.208;21.192;2023-05-24T20:27:53;100753.95;;;17.48;65.79
39177;BME280;24904;52.208;21.192;2023-05-24T20:32:58;100757.89;;;17.42;65.92
39177;BME280;24904;52.208;21.192;2023-05-24T20:38:04;100754.96;;;17.33;66.00
39177;BME280;24904;52.208;21.192;2023-05-24T20:43:09;100756.48;;;17.24;66.27
39177;BME280;24904;52.208;21.192;2023-05-24T20:48:14;100764.81;;;17.15;66.41
39177;BME280;24904;52.208;21.192;2023-05-24T20:53:19;100765.20;;;17.09;66.70
39177;BME280;24904;52.208;21.192;2023-05-24T20:58:24;100773.96;;;17.05;66.85
39177;BME280;24904;52.208;21.192;2023-05-24T21:03:29;100775.46;;;16.96;67.06
39177;BME280;24904;52.208;21.192;2023-05-24T21:08:34;100776.45;;;16.93;67.16
39177;BME280;24904;52.208;21.192;2023-05-24T21:13:39;100774.73;;;16.89;67.27
39177;BME280;24904;52.208;21.192;2023-05-24T21:18:44;100775.26;;;16.82;67.46
39177;BME280;24904;52.208;21.192;2023-05-24T21:23:49;100780.05;;;16.78;67.66
39177;BME280;24904;52.208;21.192;2023-05-24T21:28:54;100782.60;;;16.77;67.69
39177;BME280;24904;52.208;21.192;2023-05-24T21:33:59;100787.52;;;16.74;67.80
39177;BME280;24904;52.208;21.192;2023-05-24T21:39:04;100793.64;;;16.70;67.97
39177;BME280;24904;52.208;21.192;2023-05-24T21:44:10;100795.00;;;16.69;68.09
39177;BME280;24904;52.208;21.192;2023-05-24T21:49:15;100793.98;;;16.69;68.14
39177;BME280;24904;52.208;21.192;2023-05-24T21:54:21;100792.30;;;16.66;68.16
39177;BME280;24904;52.208;21.192;2023-05-24T21:59:26;100794.39;;;16.63;68.41
39177;BME280;24904;52.208;21.192;2023-05-24T22:04:31;100797.50;;;16.58;68.46
39177;BME280;24904;52.208;21.192;2023-05-24T22:09:36;100797.14;;;16.54;68.52
39177;BME280;24904;52.208;21.192;2023-05-24T22:14:41;100807.55;;;16.48;68.83
39177;BME280;24904;52.208;21.192;2023-05-24T22:19:46;100811.40;;;16.40;68.98
39177;BME280;24904;52.208;21.192;2023-05-24T22:24:51;100812.92;;;16.37;69.07
39177;BME280;24904;52.208;21.192;2023-05-24T22:29:56;100811.04;;;16.31;69.12
39177;BME280;24904;52.208;21.192;2023-05-24T22:35:01;100813.20;;;16.28;69.28
39177;BME280;24904;52.208;21.192;2023-05-24T22:40:08;100813.54;;;16.24;69.44
39177;BME280;24904;52.208;21.192;2023-05-24T22:45:14;100812.07;;;16.17;69.57
39177;BME280;24904;52.208;21.192;2023-05-24T22:50:21;100814.57;;;16.09;69.77
39177;BME280;24904;52.208;21.192;2023-05-24T22:55:26;100815.54;;;15.99;69.97
39177;BME280;24904;52.208;21.192;2023-05-24T23:00:31;100814.00;;;15.93;70.26
39177;BME280;24904;52.208;21.192;2023-05-24T23:05:36;100816.40;;;15.84;70.09
39177;BME280;24904;52.208;21.192;2023-05-24T23:10:43;100821.17;;;15.73;70.51
39177;BME280;24904;52.208;21.192;2023-05-24T23:15:49;100816.61;;;15.68;70.83
39177;BME280;24904;52.208;21.192;2023-05-24T23:20:54;100821.36;;;15.60;70.96
39177;BME280;24904;52.208;21.192;2023-05-24T23:26:00;100817.57;;;15.61;71.08
39177;BME280;24904;52.208;21.192;2023-05-24T23:39:38;100827.92;;;15.52;71.21
39177;BME280;24904;52.208;21.192;2023-05-24T23:44:41;100835.28;;;15.44;71.40
39177;BME280;24904;52.208;21.192;2023-05-24T23:49:44;100832.77;;;15.35;71.44
39177;BME280;24904;52.208;21.192;2023-05-24T23:54:47;100837.36;;;15.27;71.74
39177;BME280;24904;52.208;21.192;2023-05-24T23:59:50;100835.78;;;15.20;71.82
